createdAt,value
2022-12-23T00:01:37.481Z,93.46
2022-12-23T00:04:06.004Z,93.55
2022-12-23T00:06:36.294Z,93.23
2022-12-23T00:09:05.077Z,93.62
2022-12-23T00:11:33.672Z,93.62
2022-12-23T00:14:21.879Z,93.60
2022-12-23T00:16:51.944Z,93.31
2022-12-23T00:19:20.270Z,93.84
2022-12-23T00:21:50.319Z,93.86
2022-12-23T00:24:18.591Z,94.00
2022-12-23T00:26:47.122Z,94.10
2022-12-23T00:29:15.128Z,93.42
2022-12-23T00:31:43.687Z,93.33
2022-12-23T00:34:12.427Z,93.56
2022-12-23T00:36:43.897Z,93.26
2022-12-23T00:39:47.875Z,92.92
2022-12-23T00:42:36.454Z,93.57
2022-12-23T00:45:15.984Z,93.80
2022-12-23T00:48:01.889Z,94.33
2022-12-23T00:50:31.388Z,93.62
2022-12-23T00:52:59.812Z,92.83
2022-12-23T00:55:29.325Z,92.66
2022-12-23T00:57:57.960Z,93.50
2022-12-23T01:00:40.463Z,93.34
2022-12-23T01:03:22.878Z,93.25
2022-12-23T01:05:51.040Z,92.22
2022-12-23T01:08:19.637Z,93.14
2022-12-23T01:10:49.295Z,93.40
2022-12-23T01:13:17.408Z,93.90
2022-12-23T01:15:45.532Z,93.34
2022-12-23T01:18:14.156Z,93.48
2022-12-23T01:20:45.214Z,93.08
2022-12-23T01:23:13.779Z,92.89
2022-12-23T01:25:42.014Z,93.09
2022-12-23T01:28:11.799Z,92.82
2022-12-23T01:30:40.003Z,92.61
2022-12-23T01:33:08.250Z,92.74
2022-12-23T01:35:36.409Z,92.99
2022-12-23T01:38:05.002Z,93.11
2022-12-23T01:40:36.698Z,93.19
2022-12-23T01:43:04.260Z,93.32
2022-12-23T01:45:34.678Z,93.13
2022-12-23T01:48:06.698Z,93.15
2022-12-23T01:50:38.076Z,93.89
2022-12-23T01:53:10.348Z,93.81
2022-12-23T01:55:43.454Z,93.26
2022-12-23T01:58:15.198Z,93.24
2022-12-23T02:01:02.189Z,93.31
2022-12-23T02:03:46.796Z,92.87
2022-12-23T02:06:38.379Z,93.04
2022-12-23T02:09:19.182Z,93.41
2022-12-23T02:12:17.278Z,93.09
2022-12-23T02:15:18.169Z,93.37
2022-12-23T02:17:59.067Z,93.03
2022-12-23T02:21:01.471Z,92.66
2022-12-23T02:24:06.719Z,91.33
2022-12-23T02:27:06.445Z,91.80
2022-12-23T02:30:03.646Z,91.24
2022-12-23T02:32:45.310Z,93.19
2022-12-23T02:35:16.437Z,92.64
2022-12-23T02:37:53.457Z,91.35
2022-12-23T02:40:32.524Z,91.08
2022-12-23T02:43:06.363Z,92.14
2022-12-23T02:45:40.088Z,91.85
2022-12-23T02:48:14.827Z,92.12
2022-12-23T02:50:46.404Z,91.48
2022-12-23T02:53:20.400Z,91.47
2022-12-23T02:55:51.636Z,91.39
2022-12-23T02:58:24.583Z,91.29
2022-12-23T03:00:53.839Z,92.22
2022-12-23T03:03:24.526Z,91.66
2022-12-23T03:05:54.325Z,91.08
2022-12-23T03:08:27.217Z,91.32
2022-12-23T03:11:06.973Z,91.95
2022-12-23T03:13:54.184Z,91.88
2022-12-23T03:16:24.940Z,91.26
2022-12-23T03:19:07.790Z,91.59
2022-12-23T03:21:42.547Z,91.34
2022-12-23T03:24:23.634Z,90.82
2022-12-23T03:26:56.697Z,90.99
2022-12-23T03:29:30.986Z,91.43
2022-12-23T03:32:01.747Z,91.00
2022-12-23T03:34:37.709Z,90.31
2022-12-23T03:37:09.076Z,91.42
2022-12-23T03:39:43.245Z,91.46
2022-12-23T03:42:20.407Z,91.54
2022-12-23T03:45:27.956Z,91.31
2022-12-23T03:47:45.908Z,91.94
2022-12-23T03:50:18.651Z,92.40
2022-12-23T03:52:52.766Z,92.38
2022-12-23T03:55:26.301Z,92.40
2022-12-23T03:58:02.502Z,92.72
2022-12-23T04:00:34.868Z,92.11
2022-12-23T04:03:12.969Z,91.94
2022-12-23T04:05:46.884Z,91.70
2022-12-23T04:08:20.015Z,91.82
2022-12-23T04:10:48.866Z,91.27
2022-12-23T04:13:16.778Z,91.53
2022-12-23T04:15:45.232Z,90.96
2022-12-23T04:18:13.458Z,91.68
2022-12-23T04:20:42.948Z,90.95
2022-12-23T04:23:10.858Z,90.82
2022-12-23T04:25:38.999Z,91.61
2022-12-23T04:28:07.013Z,90.75
2022-12-23T04:30:35.410Z,92.44
2022-12-23T04:33:03.379Z,91.90
2022-12-23T04:35:32.128Z,91.62
2022-12-23T04:38:04.047Z,90.90
2022-12-23T04:40:32.427Z,91.89
2022-12-23T04:43:00.355Z,92.55
2022-12-23T04:45:28.766Z,91.69
2022-12-23T04:47:56.625Z,92.53
2022-12-23T04:50:24.851Z,91.35
2022-12-23T04:52:52.846Z,92.11
2022-12-23T04:55:22.310Z,90.69
2022-12-23T04:57:50.498Z,92.93
2022-12-23T05:00:19.307Z,91.97
2022-12-23T05:02:47.498Z,91.96
2022-12-23T05:05:16.084Z,92.58
2022-12-23T05:07:44.115Z,92.05
2022-12-23T05:10:12.861Z,91.96
2022-12-23T05:12:42.292Z,92.66
2022-12-23T05:15:11.799Z,92.31
2022-12-23T05:17:39.918Z,93.04
2022-12-23T05:20:10.687Z,92.93
2022-12-23T05:22:38.729Z,94.10
2022-12-23T05:25:08.334Z,93.17
2022-12-23T05:27:37.667Z,93.02
2022-12-23T05:30:09.081Z,93.69
2022-12-23T05:32:37.368Z,93.58
2022-12-23T05:35:05.558Z,94.03
2022-12-23T05:37:33.516Z,93.90
2022-12-23T05:43:14.286Z,93.76
2022-12-23T05:45:43.703Z,93.76
2022-12-23T05:48:12.080Z,94.41
2022-12-23T05:50:40.883Z,93.33
2022-12-23T05:53:09.595Z,93.98
2022-12-23T05:55:37.867Z,94.33
2022-12-23T05:58:06.014Z,94.72
2022-12-23T06:00:33.984Z,94.26
2022-12-23T06:03:03.736Z,93.66
2022-12-23T06:05:31.766Z,93.62
2022-12-23T06:07:59.727Z,92.67
2022-12-23T06:10:27.799Z,92.66
2022-12-23T06:12:55.984Z,93.46
2022-12-23T06:15:24.065Z,93.75
2022-12-23T06:17:52.593Z,92.55
2022-12-23T06:20:22.099Z,91.92
2022-12-23T06:22:50.515Z,92.45
2022-12-23T06:25:18.523Z,93.41
2022-12-23T06:27:47.558Z,92.74
2022-12-23T06:30:16.350Z,92.18
2022-12-23T06:32:44.870Z,93.52
2022-12-23T06:35:13.430Z,93.25
2022-12-23T06:37:43.232Z,93.32
2022-12-23T06:40:12.578Z,92.67
2022-12-23T06:42:40.981Z,93.28
2022-12-23T06:45:10.452Z,93.52
2022-12-23T06:47:39.225Z,93.57
2022-12-23T06:50:08.958Z,93.20
2022-12-23T06:52:37.010Z,92.96
2022-12-23T06:55:06.990Z,92.47
2022-12-23T06:57:35.045Z,92.24
2022-12-23T07:00:03.394Z,93.13
2022-12-23T07:02:31.815Z,93.15
2022-12-23T07:05:00.049Z,93.11
2022-12-23T07:07:28.356Z,92.81
2022-12-23T07:09:56.259Z,92.60
2022-12-23T07:12:26.274Z,92.05
2022-12-23T07:14:54.231Z,93.39
2022-12-23T07:17:22.275Z,92.96
2022-12-23T07:19:50.524Z,92.22
2022-12-23T07:22:18.673Z,92.09
2022-12-23T07:24:46.650Z,92.38
2022-12-23T07:27:14.794Z,92.42
2022-12-23T07:29:44.319Z,92.64
2022-12-23T07:32:12.687Z,91.74
2022-12-23T07:34:41.203Z,91.71
2022-12-23T07:37:09.449Z,91.33
2022-12-23T07:39:38.173Z,91.50
2022-12-23T07:42:34.322Z,91.06
2022-12-23T07:44:55.944Z,90.83
2022-12-23T07:47:24.004Z,91.72
2022-12-23T07:49:52.287Z,91.20
2022-12-23T07:52:20.739Z,90.91
2022-12-23T07:54:48.937Z,91.67
2022-12-23T07:57:17.424Z,91.28
2022-12-23T07:59:45.381Z,91.47
2022-12-23T08:02:15.423Z,91.88
2022-12-23T08:04:46.257Z,91.26
2022-12-23T08:07:14.948Z,91.21
2022-12-23T08:09:42.792Z,91.26
2022-12-23T08:12:11.181Z,89.77
2022-12-23T08:14:39.308Z,90.94
2022-12-23T08:17:07.733Z,90.77
2022-12-23T08:19:37.343Z,90.94
2022-12-23T08:22:05.747Z,92.42
2022-12-23T08:24:34.004Z,90.85
2022-12-23T08:27:02.322Z,90.43
2022-12-23T08:29:36.005Z,90.47
2022-12-23T08:32:05.154Z,90.86
2022-12-23T08:34:33.747Z,90.37
2022-12-23T08:37:03.557Z,90.66
2022-12-23T08:39:31.475Z,89.78
2022-12-23T08:42:00.016Z,90.84
2022-12-23T08:44:28.660Z,89.79
2022-12-23T08:46:57.448Z,89.92
2022-12-23T08:49:25.452Z,90.59
2022-12-23T08:51:53.874Z,89.84
2022-12-23T08:54:27.136Z,90.09
2022-12-23T08:56:55.539Z,91.39
2022-12-23T08:59:23.809Z,90.01
2022-12-23T09:01:52.235Z,89.90
2022-12-23T09:04:20.674Z,89.83
2022-12-23T09:06:49.401Z,88.56
2022-12-23T09:09:17.578Z,89.88
2022-12-23T09:11:47.463Z,90.17
2022-12-23T09:14:15.295Z,89.80
2022-12-23T09:16:43.809Z,88.88
2022-12-23T09:19:12.120Z,90.32
2022-12-23T09:21:40.412Z,89.73
2022-12-23T09:24:08.581Z,88.64
2022-12-23T09:26:37.392Z,88.62
2022-12-23T09:29:06.829Z,90.20
2022-12-23T09:31:37.785Z,89.86
2022-12-23T09:34:06.784Z,90.44
2022-12-23T09:36:35.359Z,89.75
2022-12-23T09:39:03.654Z,88.03
2022-12-23T09:41:46.369Z,88.25
2022-12-23T09:44:45.635Z,87.12
2022-12-23T09:47:19.169Z,88.50
2022-12-23T09:49:51.545Z,87.45
2022-12-23T09:52:26.370Z,87.83
2022-12-23T09:54:56.328Z,86.94
2022-12-23T09:57:35.703Z,87.06
2022-12-23T10:00:09.269Z,85.97
2022-12-23T10:03:06.307Z,86.02
2022-12-23T10:05:49.168Z,82.67
2022-12-23T10:08:25.524Z,83.62
2022-12-23T10:10:58.951Z,84.36
2022-12-23T10:13:30.043Z,83.70
2022-12-23T10:16:03.983Z,82.15
2022-12-23T10:18:47.285Z,80.51
2022-12-23T10:21:21.135Z,83.60
2022-12-23T10:23:53.214Z,82.49
2022-12-23T10:26:25.638Z,81.50
2022-12-23T10:29:02.687Z,81.68
2022-12-23T10:31:42.610Z,80.58
2022-12-23T10:34:19.741Z,79.14
2022-12-23T10:36:55.618Z,78.68
2022-12-23T10:39:33.605Z,78.58
2022-12-23T10:42:16.391Z,79.06
2022-12-23T10:45:02.450Z,78.61
2022-12-23T10:47:49.661Z,80.83
2022-12-23T10:50:35.676Z,79.86
2022-12-23T10:53:07.912Z,78.33
2022-12-23T10:55:38.413Z,78.35
2022-12-23T10:58:10.347Z,78.15
2022-12-23T11:00:42.380Z,78.89
2022-12-23T11:03:19.946Z,80.12
2022-12-23T11:05:52.513Z,79.80
2022-12-23T11:08:22.802Z,81.16
2022-12-23T11:10:50.916Z,80.99
2022-12-23T11:13:35.693Z,81.42
2022-12-23T11:16:58.672Z,81.35
2022-12-23T11:19:28.471Z,80.18
2022-12-23T11:21:59.026Z,79.53
2022-12-23T11:24:28.540Z,79.85
2022-12-23T11:27:03.345Z,79.65
2022-12-23T11:29:35.371Z,80.25
2022-12-23T11:32:06.871Z,80.30
2022-12-23T11:34:39.089Z,79.65
2022-12-23T11:37:07.937Z,81.65
2022-12-23T11:39:38.047Z,81.22
2022-12-23T11:42:13.128Z,82.34
2022-12-23T11:44:44.244Z,83.25
2022-12-23T11:47:29.640Z,82.78
2022-12-23T11:50:00.525Z,81.54
2022-12-23T11:52:30.197Z,80.31
2022-12-23T11:55:00.572Z,81.64
2022-12-23T11:57:39.689Z,83.00
2022-12-23T12:00:10.045Z,82.13
2022-12-23T12:02:42.441Z,80.14
2022-12-23T12:05:23.064Z,80.50
2022-12-23T12:07:53.580Z,80.16
2022-12-23T12:10:26.904Z,80.38
2022-12-23T12:12:59.223Z,79.84
2022-12-23T12:15:35.650Z,81.89
2022-12-23T12:18:09.004Z,82.45
2022-12-23T12:20:43.365Z,81.34
2022-12-23T12:23:18.582Z,82.14
2022-12-23T12:25:51.948Z,81.28
2022-12-23T12:28:24.523Z,81.10
2022-12-23T12:30:59.861Z,81.90
2022-12-23T12:33:36.141Z,82.83
2022-12-23T12:36:15.694Z,84.08
2022-12-23T12:38:47.853Z,82.04
2022-12-23T12:41:20.300Z,82.46
2022-12-23T12:43:54.388Z,82.33
2022-12-23T12:46:31.858Z,80.94
2022-12-23T12:49:07.083Z,82.14
2022-12-23T12:51:44.894Z,81.26
2022-12-23T12:54:21.151Z,81.34
2022-12-23T12:56:51.629Z,80.82
2022-12-23T12:59:23.530Z,81.27
2022-12-23T13:02:06.274Z,81.76
2022-12-23T13:05:05.108Z,81.80
2022-12-23T13:07:48.445Z,81.07
2022-12-23T13:10:31.345Z,81.21
2022-12-23T13:13:05.451Z,81.49
2022-12-23T13:15:40.023Z,81.42
2022-12-23T13:18:32.887Z,83.23
2022-12-23T13:21:07.515Z,83.25
2022-12-23T13:23:44.796Z,83.30
2022-12-23T13:26:23.292Z,85.15
2022-12-23T13:29:02.842Z,85.74
2022-12-23T13:31:39.066Z,87.14
2022-12-23T13:34:19.978Z,87.93
2022-12-23T13:36:56.833Z,88.16
2022-12-23T13:39:40.177Z,88.67
2022-12-23T13:42:13.842Z,88.85
2022-12-23T13:44:42.984Z,89.78
2022-12-23T13:47:20.363Z,90.48
2022-12-23T13:50:01.509Z,90.57
2022-12-23T13:52:39.467Z,91.13
2022-12-23T13:55:23.751Z,90.67
2022-12-23T13:57:58.253Z,91.98
2022-12-23T14:00:30.069Z,92.54
2022-12-23T14:03:20.824Z,94.18
2022-12-23T14:05:50.925Z,94.23
2022-12-23T14:08:43.590Z,93.97
2022-12-23T14:11:20.078Z,95.19
2022-12-23T14:13:57.342Z,94.37
2022-12-23T14:16:40.563Z,94.79
2022-12-23T14:19:44.321Z,95.53
2022-12-23T14:22:28.367Z,95.91
2022-12-23T14:25:31.024Z,94.88
2022-12-23T14:28:11.494Z,94.24
2022-12-23T14:30:43.239Z,93.91
2022-12-23T14:33:22.607Z,94.15
2022-12-23T14:35:54.419Z,94.41
2022-12-23T14:38:31.402Z,94.16
2022-12-23T14:41:24.321Z,94.94
2022-12-23T14:43:57.527Z,95.10
2022-12-23T14:46:59.579Z,94.57
2022-12-23T14:49:49.191Z,94.33
2022-12-23T14:52:50.282Z,95.09
2022-12-23T14:55:43.893Z,94.92
2022-12-23T14:58:39.422Z,94.35
2022-12-23T15:01:16.497Z,95.21
2022-12-23T15:04:01.035Z,95.32
2022-12-23T15:06:36.483Z,100.00
2022-12-23T15:09:07.936Z,97.69
2022-12-23T15:11:38.064Z,96.59
2022-12-23T15:14:12.700Z,96.24
2022-12-23T15:16:45.249Z,96.79
2022-12-23T15:19:24.450Z,97.04
2022-12-23T15:22:14.987Z,97.25
2022-12-23T15:24:48.613Z,96.64
2022-12-23T15:27:27.093Z,96.80
2022-12-23T15:29:56.734Z,97.57
2022-12-23T15:32:28.696Z,97.23
2022-12-23T15:35:03.133Z,96.79
2022-12-23T15:37:32.450Z,96.01
2022-12-23T15:40:12.128Z,95.97
2022-12-23T15:42:48.761Z,96.52
2022-12-23T15:45:33.193Z,96.55
2022-12-23T15:48:03.699Z,96.92
2022-12-23T15:50:41.894Z,96.52
2022-12-23T15:53:11.389Z,97.59
2022-12-23T15:55:42.429Z,97.61
2022-12-23T15:58:19.967Z,97.18
2022-12-23T16:00:54.914Z,95.62
2022-12-23T16:03:31.343Z,95.04
2022-12-23T16:06:09.388Z,96.62
2022-12-23T16:08:39.136Z,96.39
2022-12-23T16:11:15.933Z,97.52
2022-12-23T16:13:58.657Z,97.59
2022-12-23T16:16:38.704Z,98.05
2022-12-23T16:19:38.764Z,98.32
2022-12-23T16:22:09.202Z,97.91
2022-12-23T16:24:39.459Z,99.29
2022-12-23T16:27:07.617Z,98.13
2022-12-23T16:29:36.070Z,96.84
2022-12-23T16:32:04.411Z,96.19
2022-12-23T16:34:34.224Z,95.86
2022-12-23T16:37:02.664Z,96.11
2022-12-23T16:39:31.538Z,96.50
2022-12-23T16:41:59.774Z,95.97
2022-12-23T16:44:28.130Z,96.27
2022-12-23T16:46:57.044Z,96.30
2022-12-23T16:49:33.489Z,95.67
2022-12-23T16:52:05.664Z,96.24
2022-12-23T16:54:34.312Z,96.60
2022-12-23T16:57:02.742Z,97.40
2022-12-23T16:59:31.527Z,97.46
2022-12-23T17:02:03.754Z,97.91
2022-12-23T17:04:33.535Z,97.67
2022-12-23T17:07:01.696Z,98.03
2022-12-23T17:09:34.284Z,97.27
2022-12-23T17:12:03.005Z,100.00
2022-12-23T17:14:32.516Z,100.00
2022-12-23T17:17:00.675Z,99.71
2022-12-23T17:19:31.603Z,97.63
2022-12-23T17:22:04.492Z,96.21
2022-12-23T17:24:34.821Z,97.83
2022-12-23T17:27:03.085Z,98.99
2022-12-23T17:29:31.596Z,99.20
2022-12-23T17:32:00.957Z,99.31
2022-12-23T17:34:29.711Z,99.16
2022-12-23T17:36:58.856Z,99.48
2022-12-23T17:39:27.652Z,99.66
2022-12-23T17:41:57.278Z,99.75
2022-12-23T17:44:26.015Z,99.04
2022-12-23T17:46:54.195Z,99.15
2022-12-23T17:49:23.015Z,99.03
2022-12-23T17:51:51.193Z,98.54
2022-12-23T17:54:24.443Z,98.76
2022-12-23T17:56:53.324Z,98.75
2022-12-23T17:59:23.431Z,98.92
2022-12-23T18:01:55.745Z,99.00
2022-12-23T18:04:23.986Z,98.43
2022-12-23T18:06:52.176Z,98.50
2022-12-23T18:09:21.522Z,98.21
2022-12-23T18:11:49.607Z,96.99
2022-12-23T18:14:22.255Z,96.35
2022-12-23T18:16:53.138Z,96.11
2022-12-23T18:19:23.319Z,96.65
2022-12-23T18:21:53.077Z,97.11
2022-12-23T18:24:21.813Z,96.61
2022-12-23T18:26:50.081Z,96.79
2022-12-23T18:29:19.075Z,96.66
2022-12-23T18:31:52.107Z,95.61
2022-12-23T18:34:22.425Z,94.46
2022-12-23T18:36:52.092Z,94.02
2022-12-23T18:39:21.469Z,93.75
2022-12-23T18:41:50.292Z,93.35
2022-12-23T18:44:20.704Z,94.21
2022-12-23T18:46:49.534Z,94.47
2022-12-23T18:49:18.226Z,94.16
2022-12-23T18:51:47.903Z,94.47
2022-12-23T18:54:17.515Z,95.11
2022-12-23T18:56:45.694Z,95.09
2022-12-23T18:59:22.788Z,95.08
2022-12-23T19:01:57.400Z,94.85
2022-12-23T19:04:25.970Z,94.32
2022-12-23T19:06:55.836Z,95.33
2022-12-23T19:09:25.630Z,95.50
2022-12-23T19:11:55.124Z,95.74
2022-12-23T19:14:23.794Z,95.27
2022-12-23T19:16:52.861Z,95.88
2022-12-23T19:19:22.478Z,95.92
2022-12-23T19:21:50.674Z,95.32
2022-12-23T19:24:21.031Z,95.94
2022-12-23T19:26:49.660Z,95.97
2022-12-23T19:29:17.677Z,96.91
2022-12-23T19:31:46.132Z,96.77
2022-12-23T19:34:15.838Z,95.97
2022-12-23T19:36:44.709Z,95.39
2022-12-23T19:39:16.761Z,95.30
2022-12-23T19:41:47.019Z,95.09
2022-12-23T19:44:15.509Z,95.09
2022-12-23T19:46:44.497Z,95.69
2022-12-23T19:49:19.530Z,95.47
2022-12-23T19:51:49.160Z,95.15
2022-12-23T19:54:18.263Z,94.98
2022-12-23T19:56:51.195Z,94.64
2022-12-23T19:59:19.271Z,94.25
2022-12-23T20:01:48.765Z,94.50
2022-12-23T20:04:18.088Z,94.34
2022-12-23T20:06:46.523Z,94.56
2022-12-23T20:09:17.034Z,94.68
2022-12-23T20:11:49.595Z,94.75
2022-12-23T20:14:21.904Z,94.60
2022-12-23T20:16:51.264Z,94.46
2022-12-23T20:19:20.079Z,94.25
2022-12-23T20:21:48.449Z,94.18
2022-12-23T20:24:17.193Z,94.27
2022-12-23T20:26:47.614Z,94.80
2022-12-23T20:29:16.031Z,94.67
2022-12-23T20:31:45.180Z,94.69
2022-12-23T20:34:16.559Z,95.08
2022-12-23T20:36:45.552Z,94.46
2022-12-23T20:39:14.059Z,94.35
2022-12-23T20:41:42.327Z,94.40
2022-12-23T20:47:00.766Z,93.95
2022-12-23T20:49:29.348Z,94.31
2022-12-23T20:51:57.664Z,94.12
2022-12-23T20:54:32.197Z,93.84
2022-12-23T20:57:02.414Z,93.75
2022-12-23T20:59:32.036Z,93.77
2022-12-23T21:02:00.257Z,93.90
2022-12-23T21:04:28.774Z,93.25
2022-12-23T21:06:56.826Z,94.17
2022-12-23T21:09:25.586Z,92.85
2022-12-23T21:11:53.841Z,93.72
2022-12-23T21:14:22.639Z,93.41
2022-12-23T21:16:52.965Z,92.94
2022-12-23T21:19:24.279Z,93.80
2022-12-23T21:21:55.922Z,93.73
2022-12-23T21:24:26.221Z,92.93
2022-12-23T21:26:56.803Z,93.02
2022-12-23T21:29:25.775Z,93.27
2022-12-23T21:31:56.690Z,93.19
2022-12-23T21:34:25.235Z,93.10
2022-12-23T21:36:53.570Z,93.17
2022-12-23T21:39:22.280Z,92.96
2022-12-23T21:41:51.571Z,93.30
2022-12-23T21:44:20.022Z,93.72
2022-12-23T21:46:52.311Z,93.18
2022-12-23T21:49:22.549Z,93.83
2022-12-23T21:51:50.881Z,92.72
2022-12-23T21:54:19.412Z,92.96
2022-12-23T21:56:47.409Z,93.01
2022-12-23T21:59:18.221Z,93.07
2022-12-23T22:01:46.832Z,92.92
2022-12-23T22:04:14.944Z,92.25
2022-12-23T22:06:45.708Z,92.79
2022-12-23T22:09:16.954Z,93.24
2022-12-23T22:11:45.652Z,92.85
2022-12-23T22:14:15.750Z,93.20
2022-12-23T22:16:44.585Z,92.74
2022-12-23T22:19:13.854Z,92.50
2022-12-23T22:21:42.604Z,91.67
2022-12-23T22:24:13.201Z,91.28
2022-12-23T22:26:42.373Z,91.03
2022-12-23T22:29:14.632Z,90.92
2022-12-23T22:31:46.905Z,90.74
2022-12-23T22:34:19.541Z,90.48
2022-12-23T22:36:48.571Z,91.14
2022-12-23T22:39:22.281Z,89.90
2022-12-23T22:41:52.748Z,89.50
2022-12-23T22:44:23.747Z,88.21
2022-12-23T22:46:52.063Z,88.34
2022-12-23T22:49:20.375Z,88.64
2022-12-23T22:51:48.984Z,88.85
2022-12-23T22:54:18.443Z,88.05
2022-12-23T22:56:46.993Z,88.93
2022-12-23T22:59:22.569Z,88.42
2022-12-23T23:01:51.350Z,88.43
2022-12-23T23:04:19.821Z,88.51
2022-12-23T23:06:48.648Z,88.65
2022-12-23T23:09:20.212Z,88.94
2022-12-23T23:11:48.816Z,89.65
2022-12-23T23:14:18.775Z,88.82
2022-12-23T23:16:46.884Z,88.59
2022-12-23T23:19:19.316Z,88.56
2022-12-23T23:21:48.829Z,88.45
2022-12-23T23:24:17.956Z,88.29
2022-12-23T23:26:47.239Z,87.98
2022-12-23T23:29:15.709Z,88.23
2022-12-23T23:31:44.757Z,87.77
2022-12-23T23:34:13.793Z,88.80
2022-12-23T23:36:42.600Z,88.49
2022-12-23T23:39:13.326Z,88.87
2022-12-23T23:41:42.181Z,87.98
2022-12-23T23:44:12.635Z,87.57
2022-12-23T23:46:41.197Z,88.61
2022-12-23T23:49:09.319Z,88.55
2022-12-23T23:51:38.781Z,88.08
2022-12-23T23:54:07.218Z,88.06
2022-12-23T23:56:38.739Z,88.13
2022-12-23T23:59:08.762Z,88.54
